Time;durP1;ratioP1;P1;durP2;ratioP2;P2;SDS_P1;SDS_P2;PMS_P1;PMS_P2;Temp;Humidity;BMP_temperature;BMP_pressure;BME280_temperature;BME280_humidity;BME280_pressure;Samples;Min_cycle;Max_cycle;Signal;HPM_P1;HPM_P2
2024/01/24 00:00:39;;;;;;;1.60;1.10;;;12.30;98.20;;;;;;5080748;28;20452;-81
2024/01/24 00:03:06;;;;;;;1.60;1.00;;;12.30;98.20;;;;;;5082022;28;20476;-80
2024/01/24 00:05:34;;;;;;;1.60;1.20;;;12.30;98.20;;;;;;5081624;28;20577;-81
2024/01/24 00:08:01;;;;;;;1.60;1.10;;;12.30;98.20;;;;;;5083018;28;20560;-81
2024/01/24 00:10:28;;;;;;;1.60;1.37;;;12.30;98.20;;;;;;5079454;28;21177;-81
2024/01/24 00:12:56;;;;;;;1.60;1.00;;;12.30;98.20;;;;;;5080522;28;20487;-79
2024/01/24 00:15:23;;;;;;;1.60;1.20;;;12.30;98.20;;;;;;5084316;28;20486;-79
2024/01/24 00:17:49;;;;;;;1.60;1.00;;;12.30;98.20;;;;;;5086366;28;20477;-80
2024/01/24 00:20:19;;;;;;;1.60;1.00;;;12.30;98.20;;;;;;5080732;28;20462;-80
2024/01/24 00:22:48;;;;;;;1.60;1.10;;;12.30;98.20;;;;;;5082763;28;20485;-80
2024/01/24 00:25:15;;;;;;;1.57;1.00;;;12.30;98.20;;;;;;5078702;28;20481;-79
2024/01/24 00:27:42;;;;;;;1.60;1.10;;;12.30;98.20;;;;;;5083220;28;20481;-81
2024/01/24 00:30:09;;;;;;;1.60;1.00;;;12.30;98.20;;;;;;5078998;28;20466;-78
2024/01/24 00:32:36;;;;;;;1.60;1.10;;;12.30;98.20;;;;;;5082261;28;20500;-80
2024/01/24 00:35:03;;;;;;;1.60;1.10;;;12.40;98.20;;;;;;5081802;28;20473;-79
2024/01/24 00:37:30;;;;;;;1.60;1.07;;;12.40;98.20;;;;;;5080870;28;20537;-78
2024/01/24 00:39:58;;;;;;;1.60;1.17;;;12.40;98.20;;;;;;5080778;28;20453;-80
2024/01/24 00:42:25;;;;;;;1.60;1.00;;;12.40;98.20;;;;;;5078024;28;20480;-81
2024/01/24 00:44:52;;;;;;;1.60;1.10;;;12.40;98.20;;;;;;5080937;28;20473;-81
2024/01/24 00:47:20;;;;;;;1.57;1.00;;;12.40;98.20;;;;;;5077069;28;20499;-79
2024/01/24 00:49:47;;;;;;;1.57;1.00;;;12.40;98.20;;;;;;5080067;28;20468;-79
2024/01/24 00:52:23;;;;;;;1.60;1.10;;;12.50;98.20;;;;;;5078075;28;21063;-81
2024/01/24 00:54:49;;;;;;;1.57;1.00;;;12.50;98.20;;;;;;5079537;28;20476;-79
2024/01/24 00:57:17;;;;;;;1.60;1.00;;;12.60;98.20;;;;;;5079450;28;20473;-81
2024/01/24 00:59:44;;;;;;;1.60;1.10;;;12.60;98.20;;;;;;5083526;28;20472;-81
2024/01/24 01:02:11;;;;;;;1.60;1.17;;;12.60;98.20;;;;;;5080667;28;20481;-79
2024/01/24 01:04:38;;;;;;;1.60;1.00;;;12.60;98.20;;;;;;5087984;28;20477;-81
2024/01/24 01:07:05;;;;;;;1.60;1.10;;;12.60;98.20;;;;;;5079465;28;21302;-81
2024/01/24 01:09:32;;;;;;;1.60;1.10;;;12.60;98.20;;;;;;5081360;28;20850;-79
2024/01/24 01:11:59;;;;;;;1.60;1.10;;;12.60;98.20;;;;;;5069169;28;20474;-79
2024/01/24 01:14:27;;;;;;;1.60;1.10;;;12.60;98.20;;;;;;5082816;28;20484;-79
2024/01/24 01:16:54;;;;;;;1.60;1.00;;;12.70;98.20;;;;;;5073029;28;20540;-80
2024/01/24 01:19:21;;;;;;;1.60;1.10;;;12.70;98.20;;;;;;5086940;28;20463;-81
2024/01/24 01:21:48;;;;;;;1.60;1.10;;;12.70;98.20;;;;;;5074913;28;20599;-79
2024/01/24 01:24:14;;;;;;;1.60;1.10;;;12.70;98.20;;;;;;5085738;28;20486;-81
2024/01/24 01:26:41;;;;;;;1.60;1.10;;;12.70;98.20;;;;;;5074818;28;20476;-79
2024/01/24 01:29:08;;;;;;;1.60;1.00;;;12.80;98.20;;;;;;5088361;28;20441;-81
2024/01/24 01:31:36;;;;;;;1.60;1.20;;;12.80;98.20;;;;;;5074057;28;20551;-81
2024/01/24 01:34:04;;;;;;;1.60;1.03;;;12.80;98.20;;;;;;5086789;28;20533;-81
2024/01/24 01:36:30;;;;;;;1.60;1.10;;;12.80;98.20;;;;;;5074059;28;20476;-78
2024/01/24 01:38:57;;;;;;;1.60;1.10;;;12.90;98.20;;;;;;5086823;28;20556;-80
2024/01/24 01:41:25;;;;;;;1.60;1.03;;;12.90;98.20;;;;;;5071355;28;20490;-79
2024/01/24 01:43:51;;;;;;;1.60;1.10;;;12.90;98.20;;;;;;5089616;28;21621;-79
2024/01/24 01:46:19;;;;;;;1.57;1.00;;;13.00;98.20;;;;;;5074124;28;20503;-79
2024/01/24 01:48:49;;;;;;;1.60;1.10;;;13.00;98.20;;;;;;5089595;28;20533;-79
2024/01/24 01:51:16;;;;;;;1.60;1.00;;;13.00;98.20;;;;;;5075837;28;20476;-79
2024/01/24 01:53:44;;;;;;;1.60;1.00;;;13.00;98.20;;;;;;5087582;28;20544;-78
2024/01/24 01:56:13;;;;;;;1.60;1.00;;;13.10;98.20;;;;;;5071133;28;20482;-81
2024/01/24 01:58:41;;;;;;;1.60;1.00;;;13.10;98.20;;;;;;5089574;28;20532;-80
2024/01/24 02:01:08;;;;;;;1.60;1.00;;;13.20;98.20;;;;;;5072510;28;20474;-79
2024/01/24 02:03:35;;;;;;;1.60;1.10;;;13.20;98.20;;;;;;5089105;28;20462;-80
2024/01/24 02:06:03;;;;;;;1.60;1.00;;;13.20;98.20;;;;;;5071374;28;20547;-81
2024/01/24 02:08:32;;;;;;;1.60;1.10;;;13.30;98.20;;;;;;5083463;28;20474;-78
2024/01/24 02:10:59;;;;;;;1.60;1.10;;;13.30;98.20;;;;;;5068502;28;20487;-79
2024/01/24 02:13:30;;;;;;;1.60;1.10;;;13.30;98.20;;;;;;5091602;28;20450;-80
2024/01/24 02:15:56;;;;;;;1.60;1.00;;;13.40;98.20;;;;;;5069824;28;20550;-79
2024/01/24 02:18:23;;;;;;;1.60;1.00;;;13.40;98.20;;;;;;5095257;28;20465;-79
2024/01/24 02:20:51;;;;;;;1.60;1.10;;;13.40;98.20;;;;;;5067785;28;21073;-79
2024/01/24 02:23:19;;;;;;;1.60;1.00;;;13.40;98.20;;;;;;5091594;28;20481;-80
2024/01/24 02:25:50;;;;;;;1.60;1.00;;;13.50;98.20;;;;;;5080036;28;20512;-79
2024/01/24 02:28:16;;;;;;;1.60;1.07;;;13.50;98.20;;;;;;5044683;28;20530;-79
2024/01/24 02:30:44;;;;;;;1.60;1.00;;;13.50;98.20;;;;;;5068924;28;20840;-79
2024/01/24 02:33:11;;;;;;;1.60;1.00;;;13.50;98.20;;;;;;5084797;28;20473;-79
2024/01/24 02:35:39;;;;;;;1.60;1.20;;;13.50;98.20;;;;;;5076199;28;20481;-79
2024/01/24 02:38:06;;;;;;;1.60;1.10;;;13.50;98.20;;;;;;5081814;28;20487;-78
2024/01/24 02:40:33;;;;;;;1.60;1.00;;;13.60;98.20;;;;;;5076322;28;20565;-78
2024/01/24 02:43:01;;;;;;;1.60;1.00;;;13.60;98.20;;;;;;5076721;28;20480;-80
2024/01/24 02:45:28;;;;;;;1.60;1.10;;;13.70;98.20;;;;;;5075094;28;20911;-79
2024/01/24 02:47:55;;;;;;;1.60;1.00;;;13.70;98.20;;;;;;5082115;28;21070;-78
2024/01/24 02:50:22;;;;;;;1.60;1.07;;;13.70;98.20;;;;;;5079093;28;20553;-80
2024/01/24 02:52:49;;;;;;;1.60;1.00;;;13.70;98.20;;;;;;5081077;28;20469;-80
2024/01/24 02:55:16;;;;;;;1.60;1.10;;;13.70;98.20;;;;;;5075424;28;20888;-78
2024/01/24 02:57:43;;;;;;;1.60;1.07;;;13.80;98.20;;;;;;5082203;28;20476;-80
2024/01/24 03:00:13;;;;;;;1.60;1.10;;;13.80;98.20;;;;;;5079147;28;20458;-81
2024/01/24 03:02:40;;;;;;;1.60;1.17;;;13.70;98.20;;;;;;5080334;28;20923;-79
2024/01/24 03:05:08;;;;;;;1.60;1.00;;;13.70;98.20;;;;;;5082442;28;20478;-81
2024/01/24 03:07:34;;;;;;;1.60;1.10;;;13.80;98.20;;;;;;5082914;28;20496;-78
2024/01/24 03:10:02;;;;;;;1.60;1.00;;;13.70;98.20;;;;;;5071531;28;20655;-79
2024/01/24 03:12:28;;;;;;;1.60;1.03;;;13.70;98.20;;;;;;5081006;28;20510;-80
2024/01/24 03:14:55;;;;;;;1.60;1.00;;;13.70;98.20;;;;;;5080998;28;20495;-79
2024/01/24 03:17:23;;;;;;;1.60;1.10;;;13.70;98.20;;;;;;5080444;28;20479;-77
2024/01/24 03:19:50;;;;;;;1.60;1.00;;;13.70;98.20;;;;;;5080416;28;20464;-80
2024/01/24 03:22:17;;;;;;;1.60;1.10;;;13.70;98.20;;;;;;5079889;28;20472;-81
2024/01/24 03:24:44;;;;;;;1.60;1.07;;;13.70;98.20;;;;;;5079179;28;20485;-79
2024/01/24 03:27:11;;;;;;;1.60;1.10;;;13.70;98.20;;;;;;5079289;28;20471;-78
2024/01/24 03:29:37;;;;;;;1.60;1.00;;;13.70;98.20;;;;;;5082444;28;21246;-80
2024/01/24 03:32:05;;;;;;;1.60;1.10;;;13.70;98.20;;;;;;5079908;28;20503;-81
2024/01/24 03:34:33;;;;;;;1.60;1.00;;;13.70;98.20;;;;;;5088343;28;20980;-80
2024/01/24 03:36:59;;;;;;;1.60;1.00;;;13.70;98.20;;;;;;5080092;28;20771;-80
2024/01/24 03:39:26;;;;;;;1.57;1.00;;;13.70;98.20;;;;;;5091545;28;20468;-79
2024/01/24 03:41:53;;;;;;;1.50;1.00;;;13.60;98.20;;;;;;5091286;28;20545;-80
2024/01/24 03:44:20;;;;;;;1.60;1.00;;;13.60;98.20;;;;;;5098385;28;20788;-79
2024/01/24 03:46:46;;;;;;;1.60;1.10;;;13.60;98.20;;;;;;5087229;28;20476;-78
2024/01/24 03:49:12;;;;;;;1.60;1.00;;;13.60;98.20;;;;;;5101474;28;20457;-78
2024/01/24 03:51:40;;;;;;;1.60;1.10;;;13.60;98.20;;;;;;5081386;28;20479;-81
2024/01/24 03:54:07;;;;;;;1.60;1.13;;;13.70;98.20;;;;;;5149716;22;20250;-79
2024/01/24 03:56:34;;;;;;;1.60;1.03;;;13.60;98.20;;;;;;5060050;28;20568;-79
2024/01/24 03:59:01;;;;;;;1.60;1.20;;;13.60;98.20;;;;;;5062588;28;20628;-80
2024/01/24 04:01:28;;;;;;;1.60;1.00;;;13.60;98.20;;;;;;5050614;28;20483;-79
2024/01/24 04:03:55;;;;;;;1.60;1.10;;;13.60;98.20;;;;;;5053391;28;20493;-79
2024/01/24 04:06:21;;;;;;;1.57;1.10;;;13.50;98.20;;;;;;5038517;28;20481;-80
2024/01/24 04:08:50;;;;;;;1.60;1.10;;;13.50;98.20;;;;;;5050261;28;20554;-80
2024/01/24 04:11:16;;;;;;;1.57;1.00;;;13.50;98.20;;;;;;5040526;28;20474;-79
2024/01/24 04:13:45;;;;;;;1.60;1.00;;;13.50;98.20;;;;;;5049068;28;20577;-80
2024/01/24 04:16:12;;;;;;;1.60;1.00;;;13.50;98.20;;;;;;5040298;28;20466;-79
2024/01/24 04:18:39;;;;;;;1.57;1.00;;;13.50;98.20;;;;;;5045994;28;20506;-82
2024/01/24 04:21:06;;;;;;;1.60;1.00;;;13.50;98.20;;;;;;5041481;28;20484;-80
2024/01/24 04:23:32;;;;;;;1.60;1.10;;;13.50;98.20;;;;;;5049265;28;21008;-81
2024/01/24 04:26:03;;;;;;;1.60;1.00;;;13.50;98.20;;;;;;5040384;28;20458;-80
2024/01/24 04:28:30;;;;;;;1.60;1.00;;;13.50;98.20;;;;;;5035517;28;20459;-80
2024/01/24 04:30:57;;;;;;;1.60;1.10;;;13.40;98.20;;;;;;5041454;28;20458;-80
2024/01/24 04:33:24;;;;;;;1.60;1.00;;;13.40;98.20;;;;;;5061704;28;20478;-80
2024/01/24 04:35:55;;;;;;;1.60;1.00;;;13.40;98.20;;;;;;5038911;28;20462;-79
2024/01/24 04:38:22;;;;;;;1.60;1.10;;;13.40;98.20;;;;;;5035046;28;20599;-80
2024/01/24 04:40:48;;;;;;;1.53;1.00;;;13.50;98.20;;;;;;5038203;28;20462;-80
2024/01/24 04:43:19;;;;;;;1.53;1.00;;;13.50;98.20;;;;;;5048680;28;20490;-82
2024/01/24 04:45:46;;;;;;;1.57;0.97;;;13.50;98.20;;;;;;5049440;28;20474;-81
2024/01/24 04:48:13;;;;;;;1.60;1.10;;;13.50;98.20;;;;;;5023312;28;20474;-79
2024/01/24 04:50:40;;;;;;;1.53;1.00;;;13.40;98.20;;;;;;5050412;28;20561;-81
2024/01/24 04:53:07;;;;;;;1.60;1.10;;;13.40;98.20;;;;;;5036873;28;20478;-81
2024/01/24 04:55:34;;;;;;;1.60;1.10;;;13.30;98.20;;;;;;5047723;28;20470;-81
2024/01/24 04:58:02;;;;;;;1.57;1.00;;;13.30;98.20;;;;;;5037794;28;20506;-80
2024/01/24 05:00:30;;;;;;;1.60;1.00;;;13.20;98.20;;;;;;5051953;28;20549;-80
2024/01/24 05:02:57;;;;;;;1.60;1.00;;;13.20;98.20;;;;;;5037389;28;20679;-80
2024/01/24 05:05:24;;;;;;;1.57;1.00;;;13.20;98.20;;;;;;5046239;28;20463;-79
2024/01/24 05:07:50;;;;;;;1.60;1.00;;;13.20;98.20;;;;;;5037285;28;20833;-80
2024/01/24 05:10:17;;;;;;;1.50;1.00;;;13.20;98.20;;;;;;5042290;28;20466;-79
2024/01/24 05:12:44;;;;;;;1.53;1.00;;;13.20;98.20;;;;;;5032462;28;20490;-79
2024/01/24 05:15:11;;;;;;;1.60;1.00;;;13.20;98.20;;;;;;5042779;28;20465;-80
2024/01/24 05:17:40;;;;;;;1.60;1.10;;;13.20;98.20;;;;;;5037520;28;20870;-79
2024/01/24 05:20:08;;;;;;;1.60;1.10;;;13.10;98.20;;;;;;5043552;28;20454;-80
2024/01/24 05:22:35;;;;;;;1.60;1.20;;;13.10;98.20;;;;;;5035764;28;20528;-79
2024/01/24 05:25:02;;;;;;;1.60;1.10;;;13.10;98.20;;;;;;5048166;28;20588;-78
2024/01/24 05:27:29;;;;;;;1.60;1.10;;;13.10;98.20;;;;;;5035812;28;20869;-79
2024/01/24 05:29:55;;;;;;;1.60;1.00;;;13.10;98.20;;;;;;5047054;28;20977;-80
2024/01/24 05:32:22;;;;;;;1.60;1.10;;;13.00;98.20;;;;;;5029047;28;21035;-80
2024/01/24 05:34:50;;;;;;;1.53;1.00;;;13.00;98.20;;;;;;5043127;28;20466;-80
2024/01/24 05:37:17;;;;;;;1.60;1.10;;;13.00;98.20;;;;;;5031738;28;20478;-80
2024/01/24 05:39:44;;;;;;;1.57;1.00;;;13.00;98.20;;;;;;5047264;28;20470;-79
2024/01/24 05:42:11;;;;;;;1.60;1.00;;;13.00;98.20;;;;;;5037769;28;20477;-81
2024/01/24 05:44:38;;;;;;;1.60;1.10;;;13.00;98.20;;;;;;5048327;28;20486;-80
2024/01/24 05:47:05;;;;;;;1.60;1.10;;;13.00;98.20;;;;;;5038664;28;20478;-78
2024/01/24 05:49:36;;;;;;;1.60;1.10;;;12.90;98.20;;;;;;5047336;28;20466;-83
2024/01/24 05:52:05;;;;;;;1.57;1.00;;;12.90;98.20;;;;;;5039640;28;20478;-82
2024/01/24 05:54:33;;;;;;;1.60;1.00;;;12.90;98.20;;;;;;5050762;28;20489;-83
2024/01/24 05:57:00;;;;;;;1.60;1.10;;;12.80;98.20;;;;;;5037242;28;20489;-80
2024/01/24 05:59:26;;;;;;;1.60;1.10;;;12.70;98.20;;;;;;5045263;28;20466;-81
2024/01/24 06:01:53;;;;;;;1.57;1.00;;;12.70;98.20;;;;;;5040399;28;20824;-81
2024/01/24 06:04:20;;;;;;;1.60;1.10;;;12.60;98.20;;;;;;5048866;28;20813;-81
2024/01/24 06:06:47;;;;;;;1.60;1.10;;;12.50;98.20;;;;;;5039498;28;20762;-81
2024/01/24 06:09:18;;;;;;;1.60;1.20;;;12.50;98.20;;;;;;5045021;28;21205;-80
2024/01/24 06:11:48;;;;;;;1.57;1.00;;;12.40;98.20;;;;;;5039059;28;20834;-80
2024/01/24 06:14:15;;;;;;;1.60;1.10;;;12.40;98.20;;;;;;5047015;28;20491;-79
2024/01/24 06:16:42;;;;;;;1.50;0.90;;;12.30;98.20;;;;;;5040319;28;20550;-80
2024/01/24 06:19:09;;;;;;;1.60;1.00;;;12.30;98.20;;;;;;5048738;28;20941;-80
2024/01/24 06:21:36;;;;;;;1.60;1.27;;;12.30;98.20;;;;;;5040060;28;20542;-81
2024/01/24 06:24:02;;;;;;;1.57;1.00;;;12.30;98.20;;;;;;5048763;28;20486;-80
2024/01/24 06:26:31;;;;;;;1.57;1.00;;;12.30;98.20;;;;;;5040710;28;20574;-80
2024/01/24 06:28:58;;;;;;;1.60;1.00;;;12.30;98.20;;;;;;5037611;28;20885;-81
2024/01/24 06:31:24;;;;;;;1.60;1.10;;;12.30;98.20;;;;;;5036796;28;20516;-80
2024/01/24 06:33:51;;;;;;;1.57;1.00;;;12.30;98.20;;;;;;5044300;28;20482;-81
2024/01/24 06:36:18;;;;;;;1.57;1.00;;;12.30;98.20;;;;;;5036726;28;20480;-81
2024/01/24 06:38:45;;;;;;;1.53;1.00;;;12.30;98.20;;;;;;5045574;28;20481;-80
2024/01/24 06:41:13;;;;;;;1.60;1.10;;;12.20;98.20;;;;;;5028878;28;20476;-80
2024/01/24 06:44:05;;;;;;;1.60;1.10;;;12.20;98.20;;;;;;5044776;28;21027;-79
2024/01/24 06:46:33;;;;;;;1.53;1.00;;;12.20;98.20;;;;;;5030191;28;20545;-80
2024/01/24 06:49:00;;;;;;;1.60;1.10;;;12.20;98.20;;;;;;5037922;28;20462;-79
2024/01/24 06:51:26;;;;;;;1.60;1.10;;;12.20;98.20;;;;;;5025504;28;20475;-80
2024/01/24 06:53:53;;;;;;;1.60;1.10;;;12.20;98.20;;;;;;5038811;28;20490;-79
2024/01/24 06:56:21;;;;;;;1.60;1.10;;;12.20;98.20;;;;;;5031358;28;20641;-81
2024/01/24 06:58:48;;;;;;;1.57;1.00;;;12.20;98.20;;;;;;5038008;28;20984;-79
2024/01/24 07:01:16;;;;;;;1.60;1.10;;;12.20;98.20;;;;;;5028825;28;20478;-80
2024/01/24 07:03:43;;;;;;;1.60;1.10;;;12.20;98.20;;;;;;5042489;28;20516;-80
2024/01/24 07:06:10;;;;;;;1.60;1.10;;;12.10;98.20;;;;;;5034763;28;20581;-80
2024/01/24 07:08:40;;;;;;;1.60;1.00;;;12.10;98.20;;;;;;5049437;28;20593;-79
2024/01/24 07:11:07;;;;;;;1.60;1.10;;;12.10;98.20;;;;;;5036029;28;20471;-79
2024/01/24 07:13:34;;;;;;;1.60;1.10;;;12.10;98.20;;;;;;5048089;28;20933;-79
2024/01/24 07:16:04;;;;;;;1.57;1.10;;;12.10;98.20;;;;;;5035214;28;20916;-80
2024/01/24 07:18:32;;;;;;;1.60;1.10;;;12.10;98.20;;;;;;5053118;28;20674;-78
2024/01/24 07:21:00;;;;;;;1.60;1.10;;;12.10;98.20;;;;;;5035722;28;20468;-80
2024/01/24 07:23:26;;;;;;;1.60;1.07;;;12.10;98.20;;;;;;5051941;28;20671;-79
2024/01/24 07:25:54;;;;;;;1.60;1.00;;;12.10;98.20;;;;;;5034535;28;21867;-79
2024/01/24 07:28:23;;;;;;;1.60;1.00;;;12.10;98.20;;;;;;5034459;28;20473;-78
2024/01/24 07:30:50;;;;;;;1.60;1.00;;;12.10;98.20;;;;;;5034204;28;21223;-80
2024/01/24 07:33:17;;;;;;;1.60;1.10;;;12.10;98.20;;;;;;5048028;28;20553;-80
2024/01/24 07:35:45;;;;;;;1.57;1.03;;;12.10;98.20;;;;;;5044840;28;20462;-79
2024/01/24 07:38:12;;;;;;;1.57;1.10;;;12.00;98.20;;;;;;5044370;28;20815;-79
2024/01/24 07:40:39;;;;;;;1.50;1.00;;;12.10;98.20;;;;;;5044005;28;20592;-78
2024/01/24 07:43:07;;;;;;;1.60;1.10;;;12.10;98.20;;;;;;5022352;28;20486;-78
2024/01/24 07:45:36;;;;;;;1.60;1.20;;;12.10;98.20;;;;;;5046060;28;20470;-78
2024/01/24 07:48:03;;;;;;;1.60;1.10;;;12.10;98.20;;;;;;5027285;28;20582;-78
2024/01/24 07:50:31;;;;;;;1.57;1.10;;;12.10;98.20;;;;;;5041522;28;20469;-79
2024/01/24 07:52:59;;;;;;;1.60;1.00;;;12.00;98.20;;;;;;5029794;28;20486;-77
2024/01/24 07:55:26;;;;;;;1.57;1.00;;;12.00;98.20;;;;;;5042481;28;20561;-77
2024/01/24 07:57:53;;;;;;;1.60;1.10;;;12.00;98.20;;;;;;5024113;28;20560;-78
2024/01/24 08:00:20;;;;;;;1.53;1.00;;;12.10;98.20;;;;;;5040875;28;20563;-78
2024/01/24 08:02:47;;;;;;;1.57;1.03;;;12.00;98.20;;;;;;5023693;28;20492;-79
2024/01/24 08:05:14;;;;;;;1.57;1.10;;;12.00;98.20;;;;;;5042621;28;20579;-78
2024/01/24 08:07:41;;;;;;;3.40;3.00;;;12.00;98.20;;;;;;5043400;28;20477;-80
2024/01/24 08:10:11;;;;;;;1.57;1.10;;;12.00;98.20;;;;;;5040092;28;20928;-78
2024/01/24 08:12:38;;;;;;;1.57;1.00;;;12.00;98.20;;;;;;5032870;28;20489;-78
2024/01/24 08:15:06;;;;;;;1.57;1.10;;;12.00;98.20;;;;;;5039221;28;20468;-78
2024/01/24 08:17:36;;;;;;;1.60;1.20;;;12.00;98.20;;;;;;5032853;28;20489;-78
2024/01/24 08:20:04;;;;;;;1.60;1.10;;;12.00;98.20;;;;;;5043645;28;20469;-78
2024/01/24 08:22:31;;;;;;;1.60;1.00;;;11.90;98.20;;;;;;5031040;28;20510;-77
2024/01/24 08:24:58;;;;;;;1.57;1.00;;;11.90;98.20;;;;;;5037005;28;20492;-79
2024/01/24 08:27:26;;;;;;;1.60;1.10;;;11.90;98.20;;;;;;5031598;28;20490;-78
2024/01/24 08:29:53;;;;;;;1.57;1.03;;;11.90;98.20;;;;;;5041530;28;20561;-78
2024/01/24 08:32:20;;;;;;;1.60;1.00;;;11.90;98.20;;;;;;5039519;28;20957;-78
2024/01/24 08:34:47;;;;;;;1.57;1.10;;;11.90;98.20;;;;;;5042009;28;20466;-79
2024/01/24 08:37:14;;;;;;;1.53;1.10;;;11.90;98.20;;;;;;5037766;28;20481;-78
2024/01/24 08:39:41;;;;;;;3.10;2.70;;;11.90;98.20;;;;;;5040194;28;20458;-79
2024/01/24 08:42:08;;;;;;;1.57;1.00;;;11.90;98.20;;;;;;5027750;28;21065;-80
2024/01/24 08:44:37;;;;;;;1.57;1.00;;;11.90;98.20;;;;;;5041479;28;21016;-78
2024/01/24 08:47:04;;;;;;;1.57;1.00;;;11.90;98.20;;;;;;5033415;28;20486;-78
2024/01/24 08:49:31;;;;;;;1.57;1.10;;;11.90;98.20;;;;;;5040417;28;20469;-78
2024/01/24 08:51:58;;;;;;;1.60;1.10;;;11.90;98.20;;;;;;5032376;28;20489;-79
2024/01/24 08:54:24;;;;;;;1.53;1.00;;;11.90;98.20;;;;;;5040501;28;21021;-79
2024/01/24 08:56:51;;;;;;;1.57;1.10;;;11.90;98.20;;;;;;5028908;28;20515;-79
2024/01/24 08:59:18;;;;;;;1.57;1.10;;;11.90;98.20;;;;;;5034946;28;20466;-79
2024/01/24 09:01:47;;;;;;;1.53;1.07;;;11.90;98.20;;;;;;5033511;28;20557;-79
2024/01/24 09:04:14;;;;;;;1.60;1.10;;;11.90;98.20;;;;;;5042824;28;20489;-78
2024/01/24 09:06:42;;;;;;;1.57;1.00;;;11.90;98.20;;;;;;5033427;28;20494;-78
2024/01/24 09:09:13;;;;;;;1.53;1.00;;;12.00;98.20;;;;;;5040075;28;20519;-78
2024/01/24 09:11:40;;;;;;;1.60;1.00;;;12.00;98.20;;;;;;5031367;28;20861;-80
2024/01/24 09:14:07;;;;;;;1.60;1.10;;;12.00;98.20;;;;;;5041944;28;20485;-78
2024/01/24 09:16:34;;;;;;;1.60;1.10;;;12.00;98.20;;;;;;5033565;28;20551;-78
2024/01/24 09:19:02;;;;;;;1.60;1.10;;;12.00;98.20;;;;;;5038486;28;20549;-79
2024/01/24 09:21:30;;;;;;;1.60;1.10;;;12.00;98.20;;;;;;5031527;28;20478;-79
2024/01/24 09:23:57;;;;;;;1.57;1.03;;;12.00;98.20;;;;;;5042601;28;20522;-79
2024/01/24 09:26:24;;;;;;;1.60;1.10;;;12.00;98.20;;;;;;5030648;28;20474;-78
2024/01/24 09:28:51;;;;;;;1.60;1.10;;;12.00;98.20;;;;;;5035491;28;20470;-79
2024/01/24 09:31:18;;;;;;;1.57;1.00;;;12.00;98.20;;;;;;5031363;28;20561;-79
2024/01/24 09:33:44;;;;;;;1.53;1.00;;;12.10;98.20;;;;;;5041641;28;20950;-79
2024/01/24 09:36:13;;;;;;;1.60;1.10;;;12.00;98.20;;;;;;5032781;28;20473;-78
2024/01/24 09:38:43;;;;;;;1.57;1.10;;;12.00;98.20;;;;;;5038610;28;20470;-78
2024/01/24 09:41:17;;;;;;;1.60;1.10;;;12.00;98.20;;;;;;5027798;28;20479;-77
2024/01/24 09:43:44;;;;;;;1.60;1.10;;;12.00;98.20;;;;;;5043812;28;20548;-79
2024/01/24 09:46:15;;;;;;;1.60;1.10;;;12.00;98.20;;;;;;5032987;28;20551;-78
2024/01/24 09:48:44;;;;;;;1.60;1.10;;;12.10;98.20;;;;;;5036709;28;20470;-79
2024/01/24 09:51:13;;;;;;;1.60;1.10;;;12.10;98.20;;;;;;5032147;28;20505;-78
2024/01/24 09:53:40;;;;;;;1.57;1.00;;;12.10;98.20;;;;;;5044687;28;21418;-78
2024/01/24 09:56:08;;;;;;;1.53;1.00;;;12.10;98.20;;;;;;5031781;28;21123;-78
2024/01/24 09:58:35;;;;;;;1.60;1.10;;;12.10;98.20;;;;;;5035789;28;20451;-77
2024/01/24 10:01:05;;;;;;;1.53;1.00;;;12.10;98.20;;;;;;5030847;28;20482;-78
2024/01/24 10:03:32;;;;;;;1.50;1.00;;;12.10;98.20;;;;;;5039188;28;20724;-78
2024/01/24 10:06:01;;;;;;;1.53;1.03;;;12.10;98.20;;;;;;5027589;28;20991;-78
2024/01/24 10:08:30;;;;;;;1.60;1.20;;;12.10;98.20;;;;;;5032498;28;20998;-78
2024/01/24 10:10:57;;;;;;;1.60;1.10;;;12.20;98.20;;;;;;5033198;28;20462;-78
2024/01/24 10:13:26;;;;;;;1.60;1.10;;;12.20;98.20;;;;;;5041111;28;20496;-78
2024/01/24 10:15:55;;;;;;;3.53;1.70;;;12.20;98.20;;;;;;5031914;28;20472;-77
2024/01/24 10:18:23;;;;;;;1.60;1.00;;;12.30;98.20;;;;;;5046477;28;20502;-78
2024/01/24 10:20:51;;;;;;;1.60;1.30;;;12.30;98.20;;;;;;5031392;28;20466;-78
2024/01/24 10:23:18;;;;;;;1.57;1.00;;;12.30;98.20;;;;;;5050158;28;20486;-78
2024/01/24 10:25:47;;;;;;;1.60;1.10;;;12.30;98.20;;;;;;5040679;28;20486;-78
2024/01/24 10:28:16;;;;;;;1.57;1.00;;;12.30;98.20;;;;;;5015201;28;20492;-77
2024/01/24 10:30:43;;;;;;;1.57;1.00;;;12.30;98.20;;;;;;5041850;28;20988;-78
2024/01/24 10:33:12;;;;;;;1.53;1.00;;;12.30;98.20;;;;;;5032536;28;20596;-79
2024/01/24 10:35:40;;;;;;;1.50;1.00;;;12.30;98.20;;;;;;5045023;28;20458;-78
2024/01/24 10:38:11;;;;;;;1.57;1.00;;;12.30;98.20;;;;;;5032383;28;20482;-78
2024/01/24 10:40:40;;;;;;;1.60;1.20;;;12.40;98.20;;;;;;5050378;28;20999;-78
2024/01/24 10:43:12;;;;;;;1.53;1.00;;;12.50;98.20;;;;;;5033120;28;20511;-79
2024/01/24 10:45:43;;;;;;;1.60;1.10;;;12.50;98.20;;;;;;5048042;28;20508;-78
2024/01/24 10:48:12;;;;;;;1.70;1.30;;;12.60;98.20;;;;;;5030966;28;21090;-80
2024/01/24 10:50:40;;;;;;;1.53;1.10;;;12.70;98.20;;;;;;5048727;28;20472;-79
2024/01/24 10:53:10;;;;;;;1.53;1.00;;;12.80;98.20;;;;;;5037312;28;20482;-78
2024/01/24 10:55:39;;;;;;;2.13;1.93;;;12.80;98.20;;;;;;5048774;28;20474;-78
2024/01/24 10:58:10;;;;;;;1.50;1.00;;;12.80;98.20;;;;;;5024200;28;20553;-78
2024/01/24 11:00:39;;;;;;;1.60;1.00;;;12.80;98.20;;;;;;5047270;28;20465;-78
2024/01/24 11:03:07;;;;;;;1.57;1.00;;;12.80;98.20;;;;;;5026627;28;20498;-79
2024/01/24 11:05:39;;;;;;;1.60;1.10;;;12.80;98.20;;;;;;5044481;28;20577;-79
2024/01/24 11:08:12;;;;;;;1.60;1.10;;;12.70;98.20;;;;;;5031509;28;20478;-79
2024/01/24 11:10:42;;;;;;;1.60;1.13;;;12.60;98.20;;;;;;5047153;28;20454;-78
2024/01/24 11:13:12;;;;;;;1.60;1.20;;;12.60;98.20;;;;;;5043681;28;20490;-78
2024/01/24 11:15:43;;;;;;;1.60;1.10;;;12.70;98.20;;;;;;5048203;28;20593;-79
2024/01/24 11:18:21;;;;;;;1.60;1.10;;;12.70;98.20;;;;;;5049167;28;20471;-78
2024/01/24 11:20:51;;;;;;;1.60;1.10;;;12.70;98.20;;;;;;5045668;28;20502;-76
2024/01/24 11:23:38;;;;;;;1.57;1.00;;;12.70;98.20;;;;;;5038152;28;21016;-78
2024/01/24 11:26:06;;;;;;;1.70;1.37;;;12.70;98.20;;;;;;5037131;28;20478;-77
2024/01/24 11:28:35;;;;;;;1.53;1.10;;;12.70;98.20;;;;;;5045498;28;20535;-77
2024/01/24 11:31:12;;;;;;;1.60;1.00;;;12.70;98.20;;;;;;5034872;28;20470;-78
2024/01/24 11:34:06;;;;;;;1.53;0.97;;;12.70;98.20;;;;;;5036352;28;20481;-77
2024/01/24 11:36:42;;;;;;;1.60;1.00;;;12.70;98.20;;;;;;5028284;28;20490;-78
2024/01/24 11:39:35;;;;;;;1.57;1.10;;;12.70;98.20;;;;;;5043144;28;20473;-77
2024/01/24 11:42:42;;;;;;;1.53;1.00;;;12.70;98.20;;;;;;5041094;28;20473;-76
2024/01/24 11:45:19;;;;;;;1.57;1.00;;;12.70;98.20;;;;;;5044950;28;21106;-77
2024/01/24 11:47:48;;;;;;;1.60;1.20;;;12.80;98.20;;;;;;5028869;28;20490;-78
2024/01/24 11:50:15;;;;;;;1.57;1.00;;;12.90;98.20;;;;;;5044984;28;20529;-77
2024/01/24 11:52:44;;;;;;;1.60;1.10;;;12.90;98.20;;;;;;5034987;28;20505;-78
2024/01/24 11:55:12;;;;;;;1.60;1.10;;;12.90;98.20;;;;;;5043465;28;20466;-79
2024/01/24 11:57:42;;;;;;;1.60;1.10;;;12.90;98.20;;;;;;5044416;28;20488;-78
2024/01/24 12:00:14;;;;;;;1.60;1.10;;;12.80;98.20;;;;;;5044798;28;20847;-77
2024/01/24 12:02:43;;;;;;;1.50;1.00;;;12.80;98.20;;;;;;5045412;28;21000;-77
2024/01/24 12:05:11;;;;;;;1.60;1.00;;;12.90;98.20;;;;;;5047318;28;20573;-78
2024/01/24 12:07:39;;;;;;;1.50;1.00;;;12.80;98.20;;;;;;5023371;28;20487;-78
2024/01/24 12:10:09;;;;;;;1.60;1.07;;;12.80;98.20;;;;;;5045944;28;20813;-79
2024/01/24 12:12:37;;;;;;;1.60;1.10;;;12.90;98.20;;;;;;5047714;28;20480;-79
2024/01/24 12:17:34;;;;;;;1.57;1.13;;;12.90;98.20;;;;;;5128091;22;20570;-81
2024/01/24 12:20:07;;;;;;;1.60;1.00;;;12.90;98.20;;;;;;5062509;28;20542;-81
2024/01/24 12:22:35;;;;;;;1.53;1.00;;;12.90;98.20;;;;;;5048720;28;21015;-81
2024/01/24 12:25:03;;;;;;;1.60;1.00;;;12.90;98.20;;;;;;5072510;28;20477;-80
2024/01/24 12:27:34;;;;;;;1.60;1.10;;;12.80;98.20;;;;;;5066680;28;20884;-86
2024/01/24 12:30:01;;;;;;;1.60;1.10;;;12.70;98.20;;;;;;5095010;28;20472;-81
2024/01/24 12:32:28;;;;;;;1.57;1.00;;;12.70;98.20;;;;;;5064258;28;20474;-79
2024/01/24 12:34:59;;;;;;;1.57;1.00;;;12.70;98.20;;;;;;5084945;28;20451;-81
2024/01/24 12:37:29;;;;;;;1.57;1.03;;;12.70;98.20;;;;;;5062777;28;20517;-81
2024/01/24 12:39:57;;;;;;;1.73;1.57;;;12.70;98.20;;;;;;5079832;28;20647;-82
2024/01/24 12:42:24;;;;;;;1.53;0.90;;;12.70;98.20;;;;;;5070776;28;20477;-81
2024/01/24 12:44:58;;;;;;;1.60;1.20;;;12.70;98.20;;;;;;5088019;28;20868;-79
2024/01/24 12:47:29;;;;;;;1.60;1.17;;;12.70;98.20;;;;;;5070200;28;20461;-78
2024/01/24 12:49:56;;;;;;;1.70;1.53;;;12.70;98.20;;;;;;5088317;28;20465;-80
2024/01/24 12:52:41;;;;;;;1.60;1.07;;;12.70;98.20;;;;;;5069976;28;20546;-79
2024/01/24 12:55:11;;;;;;;1.57;1.00;;;12.60;98.20;;;;;;5093904;28;20445;-77